createdAt,value
2023-05-09T00:00:39.725Z,2.42
2023-05-09T00:03:06.282Z,5.50
2023-05-09T00:05:32.806Z,5.22
2023-05-09T00:07:59.284Z,5.40
2023-05-09T00:10:27.598Z,5.65
2023-05-09T00:12:54.124Z,6.15
2023-05-09T00:15:20.861Z,6.57
2023-05-09T00:17:47.478Z,4.65
2023-05-09T00:20:14.689Z,8.43
2023-05-09T00:22:41.496Z,9.32
2023-05-09T00:25:09.805Z,9.52
2023-05-09T00:27:36.280Z,12.68
2023-05-09T00:30:04.393Z,11.07
2023-05-09T00:32:32.139Z,12.73
2023-05-09T00:34:58.606Z,15.20
2023-05-09T00:37:25.284Z,10.07
2023-05-09T00:39:51.700Z,11.52
2023-05-09T00:42:18.238Z,10.45
2023-05-09T00:44:44.813Z,12.88
2023-05-09T00:47:11.335Z,11.45
2023-05-09T00:49:38.378Z,12.07
2023-05-09T00:52:05.806Z,11.25
2023-05-09T00:54:32.396Z,12.05
2023-05-09T00:56:58.986Z,13.43
2023-05-09T00:59:25.618Z,8.50
2023-05-09T01:01:52.227Z,11.52
2023-05-09T01:04:18.833Z,13.02
2023-05-09T01:06:58.000Z,12.95
2023-05-09T01:09:36.656Z,11.95
2023-05-09T01:12:47.657Z,10.10
2023-05-09T01:15:36.919Z,11.43
2023-05-09T01:18:24.495Z,15.50
2023-05-09T01:21:01.802Z,13.90
2023-05-09T01:23:47.666Z,15.90
2023-05-09T01:26:44.082Z,14.15
2023-05-09T01:29:42.314Z,14.73
2023-05-09T01:32:15.434Z,13.38
2023-05-09T01:34:44.018Z,20.42
2023-05-09T01:37:13.577Z,30.38
2023-05-09T01:39:42.038Z,16.60
2023-05-09T01:42:11.188Z,15.30
2023-05-09T01:44:40.985Z,17.75
2023-05-09T01:47:08.573Z,12.32
2023-05-09T01:49:39.909Z,13.50
2023-05-09T01:52:09.957Z,13.15
2023-05-09T01:54:38.755Z,12.73
2023-05-09T01:57:07.555Z,11.77
2023-05-09T01:59:35.475Z,8.88
2023-05-09T02:02:04.529Z,10.88
2023-05-09T02:04:32.325Z,9.23
2023-05-09T02:07:00.561Z,9.77
2023-05-09T02:09:27.187Z,6.78
2023-05-09T02:11:54.587Z,8.98
2023-05-09T02:14:21.658Z,7.28
2023-05-09T02:16:48.358Z,8.45
2023-05-09T02:19:14.860Z,7.57
2023-05-09T02:21:41.434Z,6.57
2023-05-09T02:24:07.984Z,6.88
2023-05-09T02:26:35.886Z,6.53
2023-05-09T02:29:05.666Z,6.78
2023-05-09T02:31:34.174Z,6.85
2023-05-09T02:34:04.149Z,5.57
2023-05-09T02:36:32.853Z,10.00
2023-05-09T02:39:00.173Z,6.25
2023-05-09T02:41:28.359Z,5.90
2023-05-09T02:43:55.067Z,7.95
2023-05-09T02:46:21.823Z,6.50
2023-05-09T02:48:48.424Z,8.88
2023-05-09T02:51:15.005Z,6.10
2023-05-09T02:53:41.468Z,7.18
2023-05-09T02:56:08.902Z,8.75
2023-05-09T02:58:35.683Z,6.35
2023-05-09T03:01:02.187Z,5.65
2023-05-09T03:03:28.880Z,7.63
2023-05-09T03:05:55.720Z,7.55
2023-05-09T03:08:22.236Z,7.78
2023-05-09T03:10:48.753Z,9.70
2023-05-09T03:13:15.320Z,5.07
2023-05-09T03:15:42.191Z,10.98
2023-05-09T03:18:08.652Z,9.02
2023-05-09T03:20:35.226Z,8.90
2023-05-09T03:23:01.685Z,8.52
2023-05-09T03:25:28.136Z,6.30
2023-05-09T03:27:54.590Z,8.75
2023-05-09T03:30:21.095Z,8.13
2023-05-09T03:32:47.659Z,6.25
2023-05-09T03:35:14.400Z,7.13
2023-05-09T03:37:41.169Z,9.80
2023-05-09T03:40:08.903Z,13.05
2023-05-09T03:42:35.482Z,8.98
2023-05-09T03:45:02.008Z,11.32
2023-05-09T03:47:28.542Z,9.90
2023-05-09T03:49:55.170Z,10.48
2023-05-09T03:52:21.708Z,10.00
2023-05-09T03:54:48.389Z,13.02
2023-05-09T03:57:14.885Z,12.13
2023-05-09T03:59:41.462Z,12.70
2023-05-09T04:02:07.998Z,13.45
2023-05-09T04:04:34.559Z,15.63
2023-05-09T04:07:01.142Z,15.27
2023-05-09T04:09:28.164Z,20.27
2023-05-09T04:11:54.614Z,16.50
2023-05-09T04:14:21.155Z,20.23
2023-05-09T04:16:47.666Z,14.82
2023-05-09T04:19:14.343Z,15.20
2023-05-09T04:21:40.958Z,13.20
2023-05-09T04:24:07.993Z,14.45
2023-05-09T04:26:38.198Z,13.00
2023-05-09T04:29:04.709Z,15.60
2023-05-09T04:31:31.658Z,15.45
2023-05-09T04:34:00.972Z,14.52
2023-05-09T04:36:31.802Z,11.88
2023-05-09T04:38:58.277Z,15.07
2023-05-09T04:41:24.952Z,13.88
2023-05-09T04:43:52.341Z,19.20
2023-05-09T04:46:18.817Z,22.63
2023-05-09T04:48:45.593Z,15.55
2023-05-09T04:51:12.058Z,23.17
2023-05-09T04:53:38.686Z,15.43
2023-05-09T04:56:05.525Z,7.93
2023-05-09T04:58:33.292Z,11.30
2023-05-09T05:00:59.910Z,13.25
2023-05-09T05:03:26.374Z,12.65
2023-05-09T05:05:53.050Z,16.23
2023-05-09T05:08:19.605Z,10.68
2023-05-09T05:10:46.071Z,13.50
2023-05-09T05:13:12.537Z,13.00
2023-05-09T05:15:39.052Z,12.80
2023-05-09T05:18:05.777Z,18.33
2023-05-09T05:20:32.625Z,19.33
2023-05-09T05:22:59.195Z,20.75
2023-05-09T05:25:26.258Z,20.98
2023-05-09T05:27:52.887Z,17.60
2023-05-09T05:30:20.894Z,15.98
2023-05-09T05:32:47.549Z,13.43
2023-05-09T05:35:14.247Z,17.17
2023-05-09T05:37:41.365Z,16.38
2023-05-09T05:40:08.494Z,23.23
2023-05-09T05:42:35.144Z,18.10
2023-05-09T05:45:04.407Z,15.43
2023-05-09T05:47:35.568Z,15.45
2023-05-09T05:50:03.924Z,17.75
2023-05-09T05:52:30.662Z,22.42
2023-05-09T05:54:57.172Z,18.23
2023-05-09T05:57:23.665Z,14.45
2023-05-09T05:59:51.198Z,14.07
2023-05-09T06:02:18.335Z,13.20
2023-05-09T06:04:45.138Z,13.75
2023-05-09T06:07:12.897Z,14.43
2023-05-09T06:09:39.493Z,14.80
2023-05-09T06:12:07.475Z,15.82
2023-05-09T06:14:34.078Z,15.50
2023-05-09T06:17:00.734Z,13.63
2023-05-09T06:19:27.304Z,16.05
2023-05-09T06:21:53.756Z,14.05
2023-05-09T06:24:34.591Z,20.25
2023-05-09T06:27:02.016Z,13.85
2023-05-09T06:29:28.543Z,14.55
2023-05-09T06:31:55.057Z,13.23
2023-05-09T06:34:21.571Z,14.35
2023-05-09T06:36:48.042Z,16.33
2023-05-09T06:39:14.560Z,14.23
2023-05-09T06:41:41.069Z,15.57
2023-05-09T06:44:07.690Z,16.63
2023-05-09T06:46:34.259Z,12.75
2023-05-09T06:49:02.481Z,13.90
2023-05-09T06:51:29.128Z,12.60
2023-05-09T06:53:55.903Z,13.52
2023-05-09T06:56:23.116Z,17.25
2023-05-09T06:58:49.675Z,21.52
2023-05-09T07:01:16.715Z,13.70
2023-05-09T07:03:43.402Z,20.73
2023-05-09T07:06:10.047Z,12.13
2023-05-09T07:08:36.545Z,12.43
2023-05-09T07:11:03.107Z,12.25
2023-05-09T07:13:29.641Z,9.30
2023-05-09T07:15:56.210Z,12.13
2023-05-09T07:18:22.713Z,10.18
2023-05-09T07:20:49.506Z,10.13
2023-05-09T07:23:16.033Z,8.05
2023-05-09T07:25:43.905Z,8.32
2023-05-09T07:28:12.364Z,9.93
2023-05-09T07:30:38.826Z,11.68
2023-05-09T07:33:05.348Z,9.20
2023-05-09T07:35:31.855Z,7.55
2023-05-09T07:37:58.394Z,11.13
2023-05-09T07:40:24.927Z,8.63
2023-05-09T07:42:53.480Z,6.72
2023-05-09T07:45:21.959Z,9.00
2023-05-09T07:47:50.310Z,8.98
2023-05-09T07:50:17.450Z,10.02
2023-05-09T07:52:43.968Z,11.73
2023-05-09T07:55:12.342Z,10.02
2023-05-09T07:57:40.049Z,6.15
2023-05-09T08:00:08.750Z,5.65
2023-05-09T08:02:35.590Z,10.27
2023-05-09T08:05:02.224Z,6.28
2023-05-09T08:07:28.705Z,6.75
2023-05-09T08:09:55.466Z,8.27
2023-05-09T08:12:22.050Z,7.53
2023-05-09T08:14:48.804Z,3.92
2023-05-09T08:17:16.222Z,4.65
2023-05-09T08:19:42.657Z,7.15
2023-05-09T08:22:09.125Z,3.85
2023-05-09T08:24:35.616Z,7.78
2023-05-09T08:27:02.727Z,5.55
2023-05-09T08:29:29.835Z,3.30
2023-05-09T08:31:56.430Z,5.03
2023-05-09T08:34:23.017Z,3.67
2023-05-09T08:36:49.605Z,4.93
2023-05-09T08:39:16.177Z,3.08
2023-05-09T08:41:43.239Z,2.38
2023-05-09T08:44:09.988Z,4.05
2023-05-09T08:46:43.737Z,2.63
2023-05-09T08:49:11.314Z,2.90
2023-05-09T08:51:38.292Z,2.67
2023-05-09T08:54:05.614Z,3.50
2023-05-09T08:56:34.066Z,1.90
2023-05-09T08:59:00.610Z,2.63
2023-05-09T09:01:27.975Z,4.93
2023-05-09T09:03:54.642Z,3.40
2023-05-09T09:06:23.396Z,2.03
2023-05-09T09:08:50.547Z,4.72
2023-05-09T09:11:17.551Z,3.50
2023-05-09T09:13:45.323Z,2.47
2023-05-09T09:16:20.939Z,1.83
2023-05-09T09:18:48.285Z,2.45
2023-05-09T09:21:17.114Z,1.88
2023-05-09T09:23:44.378Z,1.95
2023-05-09T09:26:11.310Z,2.53
2023-05-09T09:28:37.956Z,2.30
2023-05-09T09:31:21.504Z,4.43
2023-05-09T09:33:48.685Z,5.47
2023-05-09T09:36:15.427Z,3.90
2023-05-09T09:38:43.892Z,5.70
2023-05-09T09:41:12.342Z,2.13
2023-05-09T09:43:38.841Z,3.78
2023-05-09T09:46:05.983Z,3.70
2023-05-09T09:48:34.720Z,2.83
2023-05-09T09:51:11.703Z,1.60
2023-05-09T09:53:44.330Z,4.40
2023-05-09T09:58:37.672Z,2.15
2023-05-09T10:01:10.711Z,5.63
2023-05-09T10:03:42.825Z,1.90
2023-05-09T10:06:11.575Z,2.17
2023-05-09T10:08:38.425Z,1.85
2023-05-09T10:11:05.554Z,9.02
2023-05-09T10:13:36.479Z,3.45
2023-05-09T10:16:04.314Z,5.63
2023-05-09T10:18:31.699Z,3.28
2023-05-09T10:21:03.945Z,5.85
2023-05-09T10:23:31.915Z,2.33
2023-05-09T10:26:28.595Z,2.42
2023-05-09T10:28:57.315Z,4.13
2023-05-09T10:31:29.359Z,3.03
2023-05-09T10:33:56.511Z,2.70
2023-05-09T10:36:26.816Z,1.58
2023-05-09T10:38:54.809Z,4.05
2023-05-09T10:41:22.206Z,2.75
2023-05-09T10:43:48.852Z,3.63
2023-05-09T10:46:16.302Z,1.77
2023-05-09T10:48:43.966Z,1.42
2023-05-09T10:51:11.973Z,3.03
2023-05-09T10:53:45.354Z,1.33
2023-05-09T10:56:35.720Z,2.55
2023-05-09T10:59:02.694Z,1.55
2023-05-09T11:01:37.578Z,1.77
2023-05-09T11:04:16.922Z,3.15
2023-05-09T11:06:52.128Z,3.05
2023-05-09T11:09:33.398Z,3.22
2023-05-09T11:12:06.365Z,2.38
2023-05-09T11:14:50.032Z,2.40
2023-05-09T11:17:22.843Z,1.30
2023-05-09T11:19:49.507Z,2.92
2023-05-09T11:22:16.976Z,1.42
2023-05-09T11:24:48.023Z,1.33
2023-05-09T11:27:43.909Z,2.33
2023-05-09T11:30:12.603Z,2.50
2023-05-09T11:32:58.844Z,2.63
2023-05-09T11:35:28.945Z,2.20
2023-05-09T11:38:04.526Z,2.10
2023-05-09T11:40:32.684Z,2.80
2023-05-09T11:43:01.015Z,2.42
2023-05-09T11:45:32.261Z,1.10
2023-05-09T11:47:59.305Z,1.77
2023-05-09T11:50:25.988Z,1.67
2023-05-09T11:52:54.164Z,1.13
2023-05-09T11:55:25.793Z,2.17
2023-05-09T11:57:53.810Z,1.20
2023-05-09T12:00:25.111Z,1.90
2023-05-09T12:02:53.223Z,1.85
2023-05-09T12:05:21.982Z,1.17
2023-05-09T12:07:49.254Z,1.15
2023-05-09T12:10:19.893Z,4.82
2023-05-09T12:12:51.010Z,0.80
2023-05-09T12:15:18.876Z,1.10
2023-05-09T12:17:47.315Z,1.02
2023-05-09T12:20:15.521Z,5.75
2023-05-09T12:22:45.294Z,1.17
2023-05-09T12:25:12.419Z,1.67
2023-05-09T12:27:40.392Z,1.95
2023-05-09T12:30:10.154Z,1.15
2023-05-09T12:32:39.576Z,1.90
2023-05-09T12:35:12.782Z,1.33
2023-05-09T12:37:39.381Z,0.88
2023-05-09T12:40:11.389Z,1.83
2023-05-09T12:42:39.081Z,4.90
2023-05-09T12:45:08.749Z,2.15
2023-05-09T12:47:35.513Z,5.82
2023-05-09T12:50:04.306Z,1.42
2023-05-09T12:52:50.221Z,5.40
2023-05-09T12:55:21.152Z,1.35
2023-05-09T12:57:58.712Z,1.23
2023-05-09T13:00:25.530Z,0.75
2023-05-09T13:02:53.003Z,2.40
2023-05-09T13:05:21.706Z,3.42
2023-05-09T13:07:50.393Z,3.20
2023-05-09T13:10:21.402Z,2.30
2023-05-09T13:12:49.290Z,1.70
2023-05-09T13:15:19.906Z,2.50
2023-05-09T13:17:47.873Z,2.17
2023-05-09T13:20:14.782Z,3.20
2023-05-09T13:22:41.867Z,0.70
2023-05-09T13:25:08.745Z,1.10
2023-05-09T13:27:35.831Z,2.65
2023-05-09T13:30:02.393Z,2.92
2023-05-09T13:32:29.019Z,2.55
2023-05-09T13:34:55.581Z,3.40
2023-05-09T13:37:22.625Z,1.15
2023-05-09T13:39:49.294Z,2.67
2023-05-09T13:42:17.322Z,2.30
2023-05-09T13:44:46.933Z,1.60
2023-05-09T13:47:16.097Z,1.80
2023-05-09T13:49:42.656Z,1.77
2023-05-09T13:52:09.133Z,4.80
2023-05-09T13:54:35.586Z,3.03
2023-05-09T13:57:03.706Z,1.35
2023-05-09T13:59:31.539Z,3.80
2023-05-09T14:01:59.875Z,2.58
2023-05-09T14:04:27.765Z,12.18
2023-05-09T14:06:55.563Z,9.45
2023-05-09T14:09:22.790Z,5.28
2023-05-09T14:11:53.417Z,8.20
2023-05-09T14:14:21.388Z,3.10
2023-05-09T14:16:48.405Z,4.47
2023-05-09T14:19:15.568Z,7.68
2023-05-09T14:21:47.248Z,2.17
2023-05-09T14:24:16.119Z,4.25
2023-05-09T14:26:43.690Z,3.03
2023-05-09T14:29:10.451Z,5.80
2023-05-09T14:31:37.064Z,2.80
2023-05-09T14:34:05.203Z,3.90
2023-05-09T14:36:32.881Z,5.53
2023-05-09T14:38:59.448Z,4.30
2023-05-09T14:41:25.984Z,5.03
2023-05-09T14:43:52.541Z,4.50
2023-05-09T14:46:19.151Z,4.88
2023-05-09T14:48:45.791Z,4.25
2023-05-09T14:51:12.336Z,2.88
2023-05-09T14:53:42.098Z,9.63
2023-05-09T14:56:10.474Z,3.80
2023-05-09T14:58:37.514Z,3.97
2023-05-09T15:01:06.892Z,5.03
2023-05-09T15:03:33.588Z,3.85
2023-05-09T15:06:00.227Z,6.72
2023-05-09T15:08:27.105Z,2.78
2023-05-09T15:10:53.662Z,2.42
2023-05-09T15:13:20.793Z,2.83
2023-05-09T15:15:47.854Z,2.13
2023-05-09T15:18:16.519Z,2.22
2023-05-09T15:20:43.466Z,2.97
2023-05-09T15:23:10.801Z,4.43
2023-05-09T15:25:37.402Z,3.08
2023-05-09T15:28:04.352Z,1.83
2023-05-09T15:30:30.943Z,2.80
2023-05-09T15:32:57.601Z,1.85
2023-05-09T15:35:24.161Z,3.42
2023-05-09T15:37:50.740Z,2.03
2023-05-09T15:40:17.528Z,2.95
2023-05-09T15:42:44.116Z,3.83
2023-05-09T15:45:10.824Z,2.45
2023-05-09T15:47:37.466Z,3.28
2023-05-09T15:50:04.518Z,2.30
2023-05-09T15:52:31.234Z,2.30
2023-05-09T15:54:58.121Z,2.05
2023-05-09T15:57:25.026Z,4.07
2023-05-09T15:59:54.383Z,3.17
2023-05-09T16:02:21.693Z,2.92
2023-05-09T16:04:48.251Z,2.97
2023-05-09T16:07:14.848Z,2.22
2023-05-09T16:09:41.350Z,1.90
2023-05-09T16:12:07.922Z,3.88
2023-05-09T16:14:34.587Z,3.50
2023-05-09T16:17:02.593Z,3.20
2023-05-09T16:19:29.218Z,4.50
2023-05-09T16:21:55.769Z,3.47
2023-05-09T16:24:22.617Z,2.58
2023-05-09T16:26:49.225Z,2.15
2023-05-09T16:29:15.743Z,2.63
2023-05-09T16:31:42.261Z,2.28
2023-05-09T16:34:09.061Z,3.03
2023-05-09T16:36:37.474Z,2.33
2023-05-09T16:39:04.144Z,3.58
2023-05-09T16:41:30.670Z,3.13
2023-05-09T16:43:57.365Z,4.30
2023-05-09T16:46:23.915Z,3.10
2023-05-09T16:48:53.521Z,4.82
2023-05-09T16:51:20.065Z,3.22
2023-05-09T16:53:46.578Z,5.88
2023-05-09T16:56:13.116Z,3.78
2023-05-09T16:58:39.595Z,5.22
2023-05-09T17:01:06.540Z,3.55
2023-05-09T17:03:33.073Z,5.13
2023-05-09T17:05:59.540Z,5.63
2023-05-09T17:08:26.024Z,2.50
2023-05-09T17:10:52.555Z,3.88
2023-05-09T17:13:19.009Z,3.85
2023-05-09T17:15:45.737Z,3.30
2023-05-09T17:18:17.056Z,3.15
2023-05-09T17:20:46.175Z,4.50
2023-05-09T17:23:12.615Z,4.68
2023-05-09T17:25:39.066Z,3.28
2023-05-09T17:28:05.629Z,3.47
2023-05-09T17:30:32.374Z,6.40
2023-05-09T17:32:58.901Z,3.75
2023-05-09T17:35:25.915Z,6.45
2023-05-09T17:37:52.358Z,4.63
2023-05-09T17:40:18.943Z,4.97
2023-05-09T17:42:45.433Z,4.53
2023-05-09T17:45:12.386Z,2.95
2023-05-09T17:47:39.610Z,4.07
2023-05-09T17:50:07.199Z,1.60
2023-05-09T17:52:34.106Z,4.53
2023-05-09T17:55:01.210Z,1.63
2023-05-09T17:57:28.219Z,2.67
2023-05-09T17:59:54.698Z,2.78
2023-05-09T18:02:24.005Z,3.60
2023-05-09T18:04:51.474Z,1.48
2023-05-09T18:07:18.039Z,1.52
2023-05-09T18:09:44.597Z,1.40
2023-05-09T18:12:11.566Z,3.08
2023-05-09T18:14:39.100Z,1.60
2023-05-09T18:17:05.679Z,3.03
2023-05-09T18:19:33.176Z,2.38
2023-05-09T18:21:59.751Z,2.38
2023-05-09T18:24:26.289Z,1.60
2023-05-09T18:26:52.853Z,1.98
2023-05-09T18:29:19.568Z,3.03
2023-05-09T18:31:46.175Z,1.90
2023-05-09T18:34:12.977Z,1.63
2023-05-09T18:36:39.445Z,2.65
2023-05-09T18:39:05.949Z,2.42
2023-05-09T18:41:33.907Z,1.67
2023-05-09T18:44:00.362Z,1.70
2023-05-09T18:46:27.957Z,2.28
2023-05-09T18:48:54.771Z,2.25
2023-05-09T18:51:21.505Z,2.92
2023-05-09T18:53:48.470Z,2.67
2023-05-09T18:56:16.182Z,3.92
2023-05-09T18:58:42.662Z,1.27
2023-05-09T19:01:11.451Z,4.18
2023-05-09T19:03:45.756Z,5.97
2023-05-09T19:06:13.750Z,6.78
2023-05-09T19:08:43.746Z,17.42
2023-05-09T19:11:11.627Z,1.80
2023-05-09T19:13:40.108Z,4.05
2023-05-09T19:16:08.167Z,2.65
2023-05-09T19:18:34.802Z,3.47
2023-05-09T19:21:01.719Z,0.77
2023-05-09T19:23:28.153Z,2.40
2023-05-09T19:25:55.085Z,1.77
2023-05-09T19:28:22.896Z,1.08
2023-05-09T19:30:50.068Z,5.88
2023-05-09T19:33:16.911Z,1.52
2023-05-09T19:35:43.981Z,1.45
2023-05-09T19:38:13.416Z,1.40
2023-05-09T19:40:40.580Z,1.35
2023-05-09T19:43:07.127Z,1.20
2023-05-09T19:45:33.597Z,1.40
2023-05-09T19:48:00.677Z,3.10
2023-05-09T19:50:27.327Z,1.15
2023-05-09T19:52:54.260Z,0.82
2023-05-09T19:55:20.850Z,1.45
2023-05-09T19:57:47.421Z,2.22
2023-05-09T20:00:14.461Z,0.43
2023-05-09T20:02:41.278Z,2.05
2023-05-09T20:05:08.162Z,0.73
2023-05-09T20:07:34.556Z,1.05
2023-05-09T20:10:01.041Z,2.78
2023-05-09T20:12:29.894Z,1.55
2023-05-09T20:14:56.700Z,0.98
2023-05-09T20:17:23.139Z,0.77
2023-05-09T20:19:49.647Z,0.73
2023-05-09T20:22:16.112Z,0.60
2023-05-09T20:24:42.657Z,2.03
2023-05-09T20:27:09.066Z,1.13
2023-05-09T20:29:35.443Z,0.88
2023-05-09T20:32:01.864Z,2.90
2023-05-09T20:34:28.320Z,1.40
2023-05-09T20:36:55.050Z,0.88
2023-05-09T20:39:21.774Z,0.55
2023-05-09T20:41:49.031Z,0.60
2023-05-09T20:44:16.710Z,2.92
2023-05-09T20:46:44.804Z,0.30
2023-05-09T20:49:11.444Z,0.98
2023-05-09T20:51:38.426Z,0.75
2023-05-09T20:54:05.042Z,3.67
2023-05-09T20:56:33.161Z,0.35
2023-05-09T20:59:03.897Z,0.63
2023-05-09T21:01:39.483Z,0.40
2023-05-09T21:04:08.195Z,2.05
2023-05-09T21:06:36.087Z,0.30
2023-05-09T21:09:03.288Z,2.08
2023-05-09T21:11:29.988Z,0.25
2023-05-09T21:13:56.431Z,1.15
2023-05-09T21:16:23.130Z,0.60
2023-05-09T21:18:49.823Z,0.55
2023-05-09T21:21:16.314Z,1.90
2023-05-09T21:23:42.760Z,2.92
2023-05-09T21:26:09.309Z,0.10
2023-05-09T21:28:35.751Z,0.22
2023-05-09T21:31:02.295Z,0.30
2023-05-09T21:33:29.457Z,0.50
2023-05-09T21:35:55.880Z,0.30
2023-05-09T21:38:22.670Z,1.75
2023-05-09T21:40:52.225Z,0.20
2023-05-09T21:43:19.226Z,2.85
2023-05-09T21:45:45.962Z,0.20
2023-05-09T21:48:12.493Z,2.10
2023-05-09T21:50:39.137Z,0.90
2023-05-09T21:53:05.854Z,0.60
2023-05-09T21:55:32.400Z,0.75
2023-05-09T21:57:58.812Z,3.05
2023-05-09T22:00:25.444Z,1.00
2023-05-09T22:02:51.900Z,0.20
2023-05-09T22:05:18.647Z,0.28
2023-05-09T22:07:45.044Z,1.27
2023-05-09T22:10:12.080Z,0.30
2023-05-09T22:12:38.490Z,0.82
2023-05-09T22:15:05.415Z,0.28
2023-05-09T22:17:31.935Z,0.52
2023-05-09T22:19:58.348Z,1.63
2023-05-09T22:22:24.772Z,0.50
2023-05-09T22:24:51.201Z,0.47
2023-05-09T22:27:17.583Z,1.35
2023-05-09T22:29:44.011Z,1.75
2023-05-09T22:32:10.567Z,0.30
2023-05-09T22:34:37.147Z,1.20
2023-05-09T22:37:03.784Z,1.50
2023-05-09T22:39:30.809Z,0.77
2023-05-09T22:41:57.211Z,0.93
2023-05-09T22:44:23.715Z,0.55
2023-05-09T22:46:50.412Z,0.70
2023-05-09T22:49:16.890Z,1.15
2023-05-09T22:51:43.378Z,0.40
2023-05-09T22:54:10.062Z,0.57
2023-05-09T22:56:36.653Z,1.95
2023-05-09T22:59:03.087Z,0.95
2023-05-09T23:01:29.639Z,1.15
2023-05-09T23:03:56.087Z,0.60
2023-05-09T23:06:22.595Z,2.97
2023-05-09T23:08:49.162Z,0.30
2023-05-09T23:11:15.586Z,2.03
2023-05-09T23:13:42.361Z,1.50
2023-05-09T23:16:08.899Z,0.85
2023-05-09T23:18:35.357Z,0.30
2023-05-09T23:21:01.868Z,1.35
2023-05-09T23:23:28.826Z,0.80
2023-05-09T23:25:55.349Z,0.70
2023-05-09T23:28:25.071Z,0.98
2023-05-09T23:30:53.092Z,0.85
2023-05-09T23:33:19.594Z,1.15
2023-05-09T23:35:46.155Z,0.90
2023-05-09T23:38:12.698Z,2.40
2023-05-09T23:40:39.705Z,0.93
2023-05-09T23:43:06.201Z,1.05
2023-05-09T23:45:32.669Z,5.55
2023-05-09T23:47:59.218Z,2.28
2023-05-09T23:50:25.899Z,1.92
2023-05-09T23:52:52.466Z,3.15
2023-05-09T23:55:19.037Z,1.13
2023-05-09T23:57:45.594Z,0.80
